Time,TemperatureF,DewpointF,PressureIn,WindDirection,WindDirectionDegrees,WindSpeedMPH,WindSpeedGustMPH,Humidity,HourlyPrecipIn,Conditions,Clouds,dailyrainin,SoftwareType,DateUTC
2013-03-07 00:02:00,42.1,40.3,29.96,West,269,2.0,2.0,93,0.00,,,0.00,meteohub,2013-03-07 08:02:00,
2013-03-07 00:07:00,42.6,40.8,29.96,West,269,0.0,3.0,93,0.00,,,0.00,meteohub,2013-03-07 08:07:00,
2013-03-07 00:12:00,43.0,41.2,29.95,West,269,0.0,3.0,93,0.00,,,0.00,meteohub,2013-03-07 08:12:00,
2013-03-07 00:17:00,43.3,41.5,29.95,West,269,1.0,3.0,93,0.00,,,0.00,meteohub,2013-03-07 08:17:00,
2013-03-07 00:22:00,43.5,41.7,29.95,West,269,0.0,2.0,93,0.00,,,0.00,meteohub,2013-03-07 08:22:00,
2013-03-07 00:27:00,42.6,40.1,29.95,West,269,0.0,3.0,91,0.00,,,0.00,meteohub,2013-03-07 08:27:00,
2013-03-07 00:37:00,41.5,39.4,29.95,West,269,0.0,2.0,92,0.00,,,0.00,meteohub,2013-03-07 08:37:00,
2013-03-07 00:47:00,41.4,39.2,29.95,West,269,0.0,0.0,92,0.00,,,0.00,meteohub,2013-03-07 08:47:00,
2013-03-07 00:52:00,41.5,39.7,29.95,West,269,1.0,2.0,93,0.00,,,0.00,meteohub,2013-03-07 08:52:00,
2013-03-07 00:57:00,41.7,39.9,29.95,West,269,0.0,4.0,93,0.00,,,0.00,meteohub,2013-03-07 08:57:00,
2013-03-07 01:07:00,41.4,39.6,29.95,West,269,0.0,4.0,93,0.00,,,0.00,meteohub,2013-03-07 09:07:00,
2013-03-07 01:12:00,41.0,39.2,29.95,West,269,0.0,3.0,93,0.00,,,0.00,meteohub,2013-03-07 09:12:00,
2013-03-07 01:17:00,40.8,39.2,29.95,West,269,0.0,2.0,94,0.00,,,0.00,meteohub,2013-03-07 09:17:00,
2013-03-07 01:27:00,40.6,38.8,29.95,West,269,0.0,0.0,93,0.00,,,0.00,meteohub,2013-03-07 09:27:00,
2013-03-07 01:32:00,39.7,37.9,29.95,West,269,3.0,4.0,93,0.00,,,0.00,meteohub,2013-03-07 09:32:00,
2013-03-07 01:37:00,39.4,37.6,29.95,West,269,2.0,4.0,93,0.00,,,0.00,meteohub,2013-03-07 09:37:00,
2013-03-07 01:42:00,39.4,37.8,29.95,West,269,2.0,4.0,94,0.00,,,0.00,meteohub,2013-03-07 09:42:00,
2013-03-07 01:47:00,40.5,39.4,29.95,West,269,1.0,4.0,96,0.00,,,0.00,meteohub,2013-03-07 09:47:00,
2013-03-07 01:52:00,41.2,39.9,29.95,West,269,1.0,4.0,95,0.00,,,0.00,meteohub,2013-03-07 09:52:00,
2013-03-07 01:57:00,41.4,40.1,29.94,West,269,1.0,5.0,95,0.00,,,0.00,meteohub,2013-03-07 09:57:00,
2013-03-07 02:02:00,40.8,39.2,29.94,West,269,4.0,5.0,94,0.00,,,0.00,meteohub,2013-03-07 10:02:00,
2013-03-07 02:07:00,40.5,38.8,29.94,NE,34,5.0,5.0,94,0.00,,,0.00,meteohub,2013-03-07 10:07:00,
2013-03-07 02:12:00,40.3,38.7,29.94,NE,35,5.0,7.0,94,0.00,,,0.00,meteohub,2013-03-07 10:12:00,
2013-03-07 02:17:00,39.9,38.7,29.94,NE,36,6.0,8.0,95,0.00,,,0.00,meteohub,2013-03-07 10:17:00,
2013-03-07 02:27:00,39.9,38.7,29.93,NE,39,5.0,8.0,95,0.00,,,0.00,meteohub,2013-03-07 10:27:00,
2013-03-07 02:32:00,39.7,38.1,29.93,NE,39,0.0,8.0,94,0.00,,,0.00,meteohub,2013-03-07 10:32:00,
2013-03-07 02:37:00,39.0,37.4,29.93,ENE,60,0.0,8.0,94,0.00,,,0.00,meteohub,2013-03-07 10:37:00,
2013-03-07 02:42:00,38.8,37.2,29.93,NE,55,0.0,7.0,94,0.00,,,0.00,meteohub,2013-03-07 10:42:00,
2013-03-07 02:47:00,38.7,37.0,29.93,NE,55,0.0,3.0,94,0.00,,,0.00,meteohub,2013-03-07 10:47:00,
2013-03-07 02:52:00,38.5,37.2,29.93,NE,55,0.0,3.0,95,0.00,,,0.00,meteohub,2013-03-07 10:52:00,
2013-03-07 02:57:00,38.8,37.8,29.92,NE,55,3.0,3.0,96,0.00,,,0.00,meteohub,2013-03-07 10:57:00,
2013-03-07 03:02:00,39.4,38.1,29.92,NE,55,1.0,4.0,95,0.00,,,0.00,meteohub,2013-03-07 11:02:00,
2013-03-07 03:07:00,39.6,38.3,29.92,NE,55,2.0,5.0,95,0.00,,,0.00,meteohub,2013-03-07 11:07:00,
2013-03-07 03:12:00,39.6,38.3,29.91,NE,55,0.0,5.0,95,0.00,,,0.00,meteohub,2013-03-07 11:12:00,
2013-03-07 03:17:00,39.4,38.1,29.91,NE,55,0.0,4.0,95,0.00,,,0.00,meteohub,2013-03-07 11:17:00,
2013-03-07 03:22:00,39.4,38.1,29.91,NE,55,0.0,4.0,95,0.00,,,0.00,meteohub,2013-03-07 11:22:00,
2013-03-07 03:27:00,39.2,37.9,29.91,NE,55,0.0,2.0,95,0.00,,,0.00,meteohub,2013-03-07 11:27:00,
2013-03-07 03:32:00,39.0,37.8,29.91,NE,55,0.0,1.0,95,0.00,,,0.00,meteohub,2013-03-07 11:32:00,
2013-03-07 03:37:00,39.0,37.8,29.91,NE,34,6.0,0.0,95,0.00,,,0.00,meteohub,2013-03-07 11:37:00,
2013-03-07 03:42:00,39.0,37.8,29.91,NE,34,7.0,7.0,95,0.00,,,0.00,meteohub,2013-03-07 11:42:00,
2013-03-07 03:52:00,38.5,37.2,29.91,ENE,64,5.0,9.0,95,0.00,,,0.00,meteohub,2013-03-07 11:52:00,
2013-03-07 04:02:00,37.9,36.7,29.91,ENE,68,7.0,8.0,95,0.00,,,0.00,meteohub,2013-03-07 12:02:00,
2013-03-07 04:07:00,37.8,36.7,29.91,ENE,69,8.0,9.0,96,0.00,,,0.00,meteohub,2013-03-07 12:07:00,
2013-03-07 04:12:00,37.6,36.5,29.90,ENE,68,7.0,9.0,96,0.00,,,0.00,meteohub,2013-03-07 12:12:00,
2013-03-07 04:17:00,37.6,36.3,29.90,ENE,68,5.0,9.0,95,0.00,,,0.00,meteohub,2013-03-07 12:17:00,
2013-03-07 04:22:00,37.6,36.5,29.90,ENE,68,4.0,9.0,96,0.00,,,0.00,meteohub,2013-03-07 12:22:00,
2013-03-07 04:27:00,37.4,36.3,29.91,ENE,68,0.0,8.0,96,0.00,,,0.00,meteohub,2013-03-07 12:27:00,
2013-03-07 04:32:00,37.0,35.8,29.91,ENE,68,2.0,7.0,95,0.00,,,0.00,meteohub,2013-03-07 12:32:00,
2013-03-07 04:42:00,37.0,36.0,29.91,ENE,68,2.0,4.0,96,0.00,,,0.00,meteohub,2013-03-07 12:42:00,
2013-03-07 04:47:00,37.0,36.0,29.91,ENE,68,0.0,4.0,96,0.00,,,0.00,meteohub,2013-03-07 12:47:00,
2013-03-07 04:52:00,37.0,36.0,29.91,ENE,68,0.0,3.0,96,0.00,,,0.00,meteohub,2013-03-07 12:52:00,
2013-03-07 04:57:00,37.2,36.1,29.91,ENE,64,5.0,5.0,96,0.00,,,0.00,meteohub,2013-03-07 12:57:00,
2013-03-07 05:02:00,37.2,36.1,29.91,ENE,61,4.0,7.0,96,0.00,,,0.00,meteohub,2013-03-07 13:02:00,
2013-03-07 05:07:00,37.0,36.0,29.91,ENE,61,2.0,7.0,96,0.00,,,0.00,meteohub,2013-03-07 13:07:00,
2013-03-07 05:12:00,36.9,35.8,29.91,ENE,61,0.0,7.0,96,0.00,,,0.00,meteohub,2013-03-07 13:12:00,
2013-03-07 05:17:00,36.7,35.6,29.91,ENE,61,2.0,4.0,96,0.00,,,0.00,meteohub,2013-03-07 13:17:00,
2013-03-07 05:22:00,36.9,35.8,29.91,ENE,61,2.0,3.0,96,0.00,,,0.00,meteohub,2013-03-07 13:22:00,
2013-03-07 05:27:00,37.2,36.1,29.91,ENE,61,3.0,3.0,96,0.00,,,0.00,meteohub,2013-03-07 13:27:00,
2013-03-07 05:32:00,37.8,37.0,29.91,ENE,61,2.0,4.0,97,0.00,,,0.00,meteohub,2013-03-07 13:32:00,
2013-03-07 05:37:00,37.8,36.7,29.91,ENE,61,2.0,4.0,96,0.00,,,0.00,meteohub,2013-03-07 13:37:00,
2013-03-07 05:42:00,37.6,36.5,29.91,ENE,61,3.0,4.0,96,0.00,,,0.00,meteohub,2013-03-07 13:42:00,
2013-03-07 05:47:00,37.6,36.5,29.91,ENE,61,3.0,4.0,96,0.00,,,0.00,meteohub,2013-03-07 13:47:00,
2013-03-07 05:52:00,37.9,37.2,29.91,ENE,61,2.0,4.0,97,0.00,,,0.00,meteohub,2013-03-07 13:52:00,
2013-03-07 05:57:00,38.1,37.0,29.91,ENE,61,1.0,4.0,96,0.00,,,0.00,meteohub,2013-03-07 13:57:00,
2013-03-07 06:02:00,37.8,36.7,29.91,ENE,61,0.0,4.0,96,0.00,,,0.00,meteohub,2013-03-07 14:02:00,
2013-03-07 06:07:00,37.6,36.5,29.91,ENE,61,0.0,3.0,96,0.00,,,0.00,meteohub,2013-03-07 14:07:00,
2013-03-07 06:12:00,37.6,36.5,29.91,ENE,61,1.0,3.0,96,0.00,,,0.00,meteohub,2013-03-07 14:12:00,
2013-03-07 06:17:00,37.6,36.5,29.91,ENE,61,1.0,3.0,96,0.00,,,0.00,meteohub,2013-03-07 14:17:00,
2013-03-07 06:22:00,37.8,37.0,29.91,ENE,61,0.0,3.0,97,0.00,,,0.00,meteohub,2013-03-07 14:22:00,
2013-03-07 06:27:00,37.9,36.9,29.90,ENE,61,2.0,3.0,96,0.00,,,0.00,meteohub,2013-03-07 14:27:00,
2013-03-07 06:32:00,38.1,37.4,29.90,ENE,61,3.0,4.0,97,0.00,,,0.00,meteohub,2013-03-07 14:32:00,
2013-03-07 06:37:00,38.1,37.0,29.90,ENE,61,3.0,4.0,96,0.00,,,0.00,meteohub,2013-03-07 14:37:00,
2013-03-07 06:42:00,37.9,36.9,29.90,ENE,61,2.0,4.0,96,0.00,,,0.00,meteohub,2013-03-07 14:42:00,
2013-03-07 06:52:00,37.9,37.2,29.90,ENE,61,2.0,4.0,97,0.00,,,0.00,meteohub,2013-03-07 14:52:00,
2013-03-07 06:57:00,38.5,37.8,29.90,ENE,61,3.0,4.0,97,0.00,,,0.00,meteohub,2013-03-07 14:57:00,
2013-03-07 07:02:00,38.5,37.8,29.90,ENE,61,4.0,4.0,97,0.00,,,0.00,meteohub,2013-03-07 15:02:00,
2013-03-07 07:07:00,38.7,37.9,29.90,ENE,61,5.0,5.0,97,0.00,,,0.00,meteohub,2013-03-07 15:07:00,
2013-03-07 07:12:00,38.5,37.4,29.89,ENE,65,4.0,8.0,96,0.00,,,0.00,meteohub,2013-03-07 15:12:00,
2013-03-07 07:17:00,37.8,36.7,29.89,ENE,71,7.0,9.0,96,0.00,,,0.00,meteohub,2013-03-07 15:17:00,
2013-03-07 07:22:00,37.2,36.1,29.89,ENE,72,7.0,9.0,96,0.00,,,0.00,meteohub,2013-03-07 15:22:00,
2013-03-07 07:27:00,37.0,36.0,29.90,ENE,72,4.0,9.0,96,0.00,,,0.00,meteohub,2013-03-07 15:27:00,
2013-03-07 07:37:00,37.2,36.5,29.90,ENE,72,2.0,8.0,97,0.00,,,0.00,meteohub,2013-03-07 15:37:00,
2013-03-07 07:42:00,37.6,36.9,29.90,ENE,72,2.0,7.0,97,0.00,,,0.00,meteohub,2013-03-07 15:42:00,
2013-03-07 07:52:00,37.9,37.2,29.90,ENE,72,5.0,7.0,97,0.00,,,0.00,meteohub,2013-03-07 15:52:00,
2013-03-07 07:57:00,38.1,37.4,29.90,ENE,71,5.0,8.0,97,0.00,,,0.00,meteohub,2013-03-07 15:57:00,
2013-03-07 08:02:00,38.7,37.9,29.90,ENE,69,4.0,8.0,97,0.00,,,0.00,meteohub,2013-03-07 16:02:00,
2013-03-07 08:07:00,38.8,38.1,29.90,ENE,69,5.0,8.0,97,0.00,,,0.00,meteohub,2013-03-07 16:07:00,
2013-03-07 08:17:00,39.4,38.7,29.90,ENE,74,5.0,8.0,97,0.00,,,0.00,meteohub,2013-03-07 16:17:00,
2013-03-07 08:22:00,39.6,38.8,29.90,East,79,8.0,9.0,97,0.00,,,0.00,meteohub,2013-03-07 16:22:00,
2013-03-07 08:27:00,39.6,38.8,29.90,East,80,6.0,9.0,97,0.00,,,0.00,meteohub,2013-03-07 16:27:00,
2013-03-07 08:37:00,40.1,39.4,29.90,East,79,6.0,9.0,97,0.00,,,0.00,meteohub,2013-03-07 16:37:00,
2013-03-07 08:42:00,40.3,39.6,29.90,ENE,75,4.0,8.0,97,0.00,,,0.00,meteohub,2013-03-07 16:42:00,
2013-03-07 08:47:00,40.3,39.6,29.90,ENE,78,7.0,8.0,97,0.00,,,0.00,meteohub,2013-03-07 16:47:00,
2013-03-07 08:52:00,40.3,39.6,29.90,ENE,78,8.0,9.0,97,0.00,,,0.00,meteohub,2013-03-07 16:52:00,
2013-03-07 08:57:00,40.5,39.7,29.91,East,79,6.0,9.0,97,0.00,,,0.00,meteohub,2013-03-07 16:57:00,
2013-03-07 09:02:00,40.5,39.4,29.91,East,80,5.0,9.0,96,0.00,,,0.00,meteohub,2013-03-07 17:02:00,
2013-03-07 09:07:00,40.6,39.9,29.91,ENE,78,7.0,9.0,97,0.00,,,0.00,meteohub,2013-03-07 17:07:00,
2013-03-07 09:12:00,41.0,40.3,29.91,East,80,5.0,9.0,97,0.00,,,0.00,meteohub,2013-03-07 17:12:00,
2013-03-07 09:17:00,41.5,40.8,29.91,East,88,7.0,8.0,97,0.00,,,0.00,meteohub,2013-03-07 17:17:00,
2013-03-07 09:27:00,42.6,41.9,29.91,East,98,7.0,8.0,97,0.00,,,0.00,meteohub,2013-03-07 17:27:00,
2013-03-07 09:32:00,43.2,42.4,29.91,East,92,5.0,8.0,97,0.00,,,0.00,meteohub,2013-03-07 17:32:00,
2013-03-07 09:37:00,43.5,42.4,29.91,East,86,5.0,8.0,96,0.00,,,0.00,meteohub,2013-03-07 17:37:00,
2013-03-07 09:42:00,43.9,42.8,29.91,East,96,7.0,8.0,96,0.00,,,0.00,meteohub,2013-03-07 17:42:00,
2013-03-07 09:47:00,44.6,43.3,29.91,East,88,3.0,9.0,95,0.00,,,0.00,meteohub,2013-03-07 17:47:00,
2013-03-07 09:57:00,45.3,43.3,29.90,East,99,5.0,9.0,93,0.00,,,0.00,meteohub,2013-03-07 17:57:00,
2013-03-07 10:02:00,45.3,43.2,29.90,East,90,5.0,9.0,92,0.00,,,0.00,meteohub,2013-03-07 18:02:00,
2013-03-07 10:12:00,45.7,43.5,29.90,East,80,6.0,8.0,92,0.00,,,0.00,meteohub,2013-03-07 18:12:00,
2013-03-07 10:17:00,46.0,43.9,29.90,ENE,71,4.0,8.0,92,0.00,,,0.00,meteohub,2013-03-07 18:17:00,
2013-03-07 10:22:00,46.0,43.5,29.90,ENE,70,5.0,8.0,91,0.00,,,0.00,meteohub,2013-03-07 18:22:00,
2013-03-07 10:27:00,46.8,44.2,29.90,ENE,57,4.0,8.0,91,0.00,,,0.00,meteohub,2013-03-07 18:27:00,
2013-03-07 10:32:00,46.8,44.1,29.90,ENE,63,5.0,8.0,90,0.00,,,0.00,meteohub,2013-03-07 18:32:00,
2013-03-07 10:37:00,47.5,45.0,29.90,ENE,63,5.0,8.0,91,0.00,,,0.00,meteohub,2013-03-07 18:37:00,
2013-03-07 10:42:00,48.0,45.0,29.90,ENE,72,7.0,9.0,89,0.00,,,0.00,meteohub,2013-03-07 18:42:00,
2013-03-07 10:47:00,48.7,45.3,29.90,ESE,109,8.0,10.0,88,0.00,,,0.00,meteohub,2013-03-07 18:47:00,
2013-03-07 10:52:00,49.3,45.0,29.90,ENE,77,5.0,10.0,85,0.00,,,0.00,meteohub,2013-03-07 18:52:00,
2013-03-07 11:02:00,49.8,45.1,29.90,East,90,6.0,11.0,84,0.00,,,0.00,meteohub,2013-03-07 19:02:00,
2013-03-07 11:07:00,49.8,44.2,29.90,ESE,109,8.0,11.0,81,0.00,,,0.00,meteohub,2013-03-07 19:07:00,
2013-03-07 11:17:00,49.6,44.1,29.90,ESE,105,5.0,11.0,81,0.00,,,0.00,meteohub,2013-03-07 19:17:00,
2013-03-07 11:22:00,49.6,44.1,29.90,ESE,107,4.0,11.0,81,0.00,,,0.00,meteohub,2013-03-07 19:22:00,
2013-03-07 11:27:00,49.8,44.2,29.90,SE,126,9.0,10.0,81,0.00,,,0.00,meteohub,2013-03-07 19:27:00,
2013-03-07 11:37:00,49.6,43.0,29.90,ESE,111,7.0,12.0,78,0.00,,,0.00,meteohub,2013-03-07 19:37:00,
2013-03-07 11:42:00,49.8,43.5,29.89,ESE,108,3.0,12.0,79,0.00,,,0.00,meteohub,2013-03-07 19:42:00,
2013-03-07 11:47:00,50.0,44.1,29.89,ESE,105,5.0,12.0,80,0.00,,,0.00,meteohub,2013-03-07 19:47:00,
2013-03-07 11:52:00,50.2,43.9,29.89,ESE,119,7.0,11.0,79,0.00,,,0.00,meteohub,2013-03-07 19:52:00,
2013-03-07 11:57:00,50.5,44.6,29.89,ESE,115,5.0,12.0,80,0.00,,,0.00,meteohub,2013-03-07 19:57:00,
2013-03-07 12:02:00,50.5,43.0,29.89,ESE,121,5.0,12.0,75,0.00,,,0.00,meteohub,2013-03-07 20:02:00,
2013-03-07 12:07:00,50.7,42.4,29.89,ESE,117,9.0,12.0,73,0.00,,,0.00,meteohub,2013-03-07 20:07:00,
2013-03-07 12:12:00,50.7,43.5,29.88,East,80,7.0,11.0,76,0.00,,,0.00,meteohub,2013-03-07 20:12:00,
2013-03-07 12:17:00,50.5,43.3,29.88,ESE,120,5.0,11.0,76,0.00,,,0.00,meteohub,2013-03-07 20:17:00,
2013-03-07 12:22:00,50.5,43.5,29.88,East,90,6.0,10.0,77,0.00,,,0.00,meteohub,2013-03-07 20:22:00,
2013-03-07 12:27:00,50.4,43.3,29.88,East,89,6.0,9.0,77,0.00,,,0.00,meteohub,2013-03-07 20:27:00,
2013-03-07 12:32:00,50.5,43.3,29.88,ESE,121,4.0,9.0,76,0.00,,,0.00,meteohub,2013-03-07 20:32:00,
2013-03-07 12:37:00,50.9,43.9,29.88,ESE,113,5.0,10.0,77,0.00,,,0.00,meteohub,2013-03-07 20:37:00,
2013-03-07 12:42:00,50.7,43.2,29.87,ESE,102,5.0,10.0,75,0.00,,,0.00,meteohub,2013-03-07 20:42:00,
2013-03-07 12:47:00,51.4,44.1,29.87,East,97,6.0,10.0,76,0.00,,,0.00,meteohub,2013-03-07 20:47:00,
2013-03-07 12:52:00,51.1,42.8,29.87,ESE,117,4.0,10.0,73,0.00,,,0.00,meteohub,2013-03-07 20:52:00,
2013-03-07 12:57:00,51.1,42.1,29.87,ESE,106,5.0,10.0,71,0.00,,,0.00,meteohub,2013-03-07 20:57:00,
2013-03-07 13:02:00,50.9,42.6,29.87,ESE,107,4.0,10.0,73,0.00,,,0.00,meteohub,2013-03-07 21:02:00,
2013-03-07 13:07:00,50.9,43.0,29.87,East,99,6.0,10.0,74,0.00,,,0.00,meteohub,2013-03-07 21:07:00,
2013-03-07 13:12:00,50.9,42.6,29.86,ESE,107,3.0,10.0,73,0.00,,,0.00,meteohub,2013-03-07 21:12:00,
2013-03-07 13:17:00,50.7,42.1,29.86,ENE,77,7.0,9.0,72,0.00,,,0.00,meteohub,2013-03-07 21:17:00,
2013-03-07 13:22:00,50.7,42.4,29.86,East,89,7.0,9.0,73,0.00,,,0.00,meteohub,2013-03-07 21:22:00,
2013-03-07 13:27:00,50.9,42.6,29.86,East,87,6.0,10.0,73,0.00,,,0.00,meteohub,2013-03-07 21:27:00,
2013-03-07 13:32:00,50.9,41.9,29.86,SE,127,8.0,10.0,71,0.00,,,0.00,meteohub,2013-03-07 21:32:00,
2013-03-07 13:37:00,50.7,41.7,29.86,ESE,109,7.0,11.0,71,0.00,,,0.00,meteohub,2013-03-07 21:37:00,
2013-03-07 13:42:00,50.7,41.7,29.86,ESE,116,7.0,11.0,71,0.00,,,0.00,meteohub,2013-03-07 21:42:00,
2013-03-07 13:47:00,50.5,42.3,29.86,East,96,6.0,11.0,73,0.00,,,0.00,meteohub,2013-03-07 21:47:00,
2013-03-07 13:52:00,50.5,42.3,29.86,East,80,5.0,9.0,73,0.00,,,0.00,meteohub,2013-03-07 21:52:00,
2013-03-07 13:57:00,50.5,41.9,29.85,East,80,2.0,9.0,72,0.00,,,0.00,meteohub,2013-03-07 21:57:00,
2013-03-07 14:02:00,50.7,42.4,29.85,East,90,6.0,9.0,73,0.00,,,0.00,meteohub,2013-03-07 22:02:00,
2013-03-07 14:07:00,50.4,39.0,29.85,East,101,5.0,9.0,65,0.00,,,0.00,meteohub,2013-03-07 22:07:00,
2013-03-07 14:12:00,50.4,38.3,29.84,NE,56,4.0,14.0,63,0.00,,,0.00,meteohub,2013-03-07 22:12:00,
2013-03-07 14:22:00,51.1,41.2,29.84,ENE,67,5.0,14.0,69,0.00,,,0.00,meteohub,2013-03-07 22:22:00,
2013-03-07 14:27:00,51.3,41.9,29.84,East,82,5.0,8.0,70,0.00,,,0.00,meteohub,2013-03-07 22:27:00,
2013-03-07 14:32:00,51.3,39.9,29.84,ENE,66,2.0,8.0,65,0.00,,,0.00,meteohub,2013-03-07 22:32:00,
2013-03-07 14:37:00,51.6,41.0,29.84,East,91,3.0,8.0,67,0.00,,,0.00,meteohub,2013-03-07 22:37:00,
2013-03-07 14:42:00,51.6,41.0,29.84,East,91,6.0,8.0,67,0.00,,,0.00,meteohub,2013-03-07 22:42:00,
2013-03-07 14:47:00,51.6,40.6,29.84,NE,50,6.0,9.0,66,0.00,,,0.00,meteohub,2013-03-07 22:47:00,
2013-03-07 14:52:00,51.6,41.0,29.84,East,80,6.0,9.0,67,0.00,,,0.00,meteohub,2013-03-07 22:52:00,
2013-03-07 14:57:00,51.6,40.6,29.84,East,82,1.0,9.0,66,0.00,,,0.00,meteohub,2013-03-07 22:57:00,
2013-03-07 15:02:00,51.8,41.2,29.84,East,82,6.0,9.0,67,0.00,,,0.00,meteohub,2013-03-07 23:02:00,
2013-03-07 15:07:00,52.0,41.7,29.84,East,84,2.0,7.0,68,0.00,,,0.00,meteohub,2013-03-07 23:07:00,
2013-03-07 15:12:00,52.2,41.5,29.84,East,84,2.0,7.0,67,0.00,,,0.00,meteohub,2013-03-07 23:12:00,
2013-03-07 15:17:00,52.3,41.0,29.84,East,84,2.0,7.0,65,0.00,,,0.00,meteohub,2013-03-07 23:17:00,
2013-03-07 15:22:00,52.3,40.5,29.84,East,83,5.0,6.0,64,0.00,,,0.00,meteohub,2013-03-07 23:22:00,
2013-03-07 15:32:00,52.3,41.4,29.84,East,83,2.0,6.0,66,0.00,,,0.00,meteohub,2013-03-07 23:32:00,
2013-03-07 15:37:00,52.2,40.8,29.84,East,83,0.0,7.0,65,0.00,,,0.00,meteohub,2013-03-07 23:37:00,
2013-03-07 15:42:00,52.2,41.5,29.84,East,83,3.0,7.0,67,0.00,,,0.00,meteohub,2013-03-07 23:42:00,
2013-03-07 15:47:00,52.0,40.6,29.84,East,85,5.0,6.0,65,0.00,,,0.00,meteohub,2013-03-07 23:47:00,
2013-03-07 15:52:00,51.6,41.0,29.84,East,85,0.0,6.0,67,0.00,,,0.00,meteohub,2013-03-07 23:52:00,
2013-03-07 15:57:00,51.6,41.4,29.83,East,85,0.0,6.0,68,0.00,,,0.00,meteohub,2013-03-07 23:57:00,
2013-03-07 16:02:00,51.6,41.0,29.83,East,85,0.0,6.0,67,0.00,,,0.00,meteohub,2013-03-08 00:02:00,
2013-03-07 16:07:00,51.6,40.6,29.83,East,85,0.0,3.0,66,0.00,,,0.00,meteohub,2013-03-08 00:07:00,
2013-03-07 16:12:00,51.6,41.4,29.83,East,85,0.0,3.0,68,0.00,,,0.00,meteohub,2013-03-08 00:12:00,
2013-03-07 16:17:00,51.6,40.6,29.83,East,85,0.0,3.0,66,0.00,,,0.00,meteohub,2013-03-08 00:17:00,
2013-03-07 16:22:00,51.8,40.8,29.83,NNW,347,0.0,2.0,66,0.00,,,0.00,meteohub,2013-03-08 00:22:00,
2013-03-07 16:27:00,51.8,42.6,29.83,NNW,347,5.0,5.0,71,0.00,,,0.00,meteohub,2013-03-08 00:27:00,
2013-03-07 16:32:00,50.7,43.7,29.83,NNW,346,2.0,7.0,77,0.00,,,0.00,meteohub,2013-03-08 00:32:00,
2013-03-07 16:37:00,49.6,44.1,29.83,WNW,286,8.0,8.0,81,0.00,,,0.00,meteohub,2013-03-08 00:37:00,
2013-03-07 16:42:00,48.7,44.4,29.84,WNW,288,7.0,9.0,85,0.00,,,0.00,meteohub,2013-03-08 00:42:00,
2013-03-07 16:47:00,48.4,44.8,29.84,NW,304,6.0,10.0,87,0.00,,,0.00,meteohub,2013-03-08 00:47:00,
2013-03-07 16:52:00,48.2,44.8,29.84,WNW,291,5.0,10.0,88,0.00,,,0.00,meteohub,2013-03-08 00:52:00,
2013-03-07 16:57:00,47.8,44.8,29.84,WNW,292,8.0,10.0,89,0.00,,,0.00,meteohub,2013-03-08 00:57:00,
2013-03-07 17:02:00,47.7,45.0,29.84,WNW,302,5.0,10.0,90,0.00,,,0.00,meteohub,2013-03-08 01:02:00,
2013-03-07 17:12:00,47.1,44.6,29.84,WNW,300,5.0,11.0,91,0.00,,,0.00,meteohub,2013-03-08 01:12:00,
2013-03-07 17:17:00,46.9,44.8,29.84,WNW,289,7.0,11.0,92,0.00,,,0.00,meteohub,2013-03-08 01:17:00,
2013-03-07 17:22:00,46.9,44.8,29.84,WNW,292,7.0,9.0,92,0.00,,,0.00,meteohub,2013-03-08 01:22:00,
2013-03-07 17:27:00,46.9,44.8,29.83,WNW,288,5.0,9.0,92,0.00,,,0.00,meteohub,2013-03-08 01:27:00,
2013-03-07 17:32:00,46.8,44.8,29.83,WNW,288,3.0,9.0,93,0.00,,,0.00,meteohub,2013-03-08 01:32:00,
2013-03-07 17:37:00,46.8,44.8,29.83,WNW,288,6.0,9.0,93,0.00,,,0.00,meteohub,2013-03-08 01:37:00,
2013-03-07 17:42:00,46.6,44.6,29.83,WNW,288,4.0,9.0,93,0.00,,,0.00,meteohub,2013-03-08 01:42:00,
2013-03-07 17:47:00,46.4,44.4,29.83,WNW,288,3.0,7.0,93,0.00,,,0.00,meteohub,2013-03-08 01:47:00,
2013-03-07 17:52:00,46.2,44.2,29.83,WNW,288,3.0,7.0,93,0.00,,,0.00,meteohub,2013-03-08 01:52:00,
2013-03-07 17:57:00,46.2,44.2,29.83,WNW,288,4.0,6.0,93,0.00,,,0.00,meteohub,2013-03-08 01:57:00,
2013-03-07 18:02:00,46.0,44.1,29.83,WNW,288,3.0,5.0,93,0.00,,,0.00,meteohub,2013-03-08 02:02:00,
2013-03-07 18:07:00,46.0,44.4,29.83,WNW,288,6.0,6.0,94,0.00,,,0.00,meteohub,2013-03-08 02:07:00,
2013-03-07 18:12:00,46.0,44.4,29.83,WNW,288,5.0,7.0,94,0.00,,,0.00,meteohub,2013-03-08 02:12:00,
2013-03-07 18:17:00,45.9,44.2,29.83,WNW,288,3.0,7.0,94,0.00,,,0.00,meteohub,2013-03-08 02:17:00,
2013-03-07 18:22:00,45.9,44.2,29.83,WNW,288,4.0,7.0,94,0.00,,,0.00,meteohub,2013-03-08 02:22:00,
2013-03-07 18:32:00,45.9,44.2,29.83,WNW,288,3.0,6.0,94,0.00,,,0.00,meteohub,2013-03-08 02:32:00,
2013-03-07 18:37:00,45.7,44.1,29.83,WNW,288,2.0,5.0,94,0.00,,,0.00,meteohub,2013-03-08 02:37:00,
2013-03-07 18:42:00,45.7,44.1,29.84,WNW,288,3.0,5.0,94,0.00,,,0.00,meteohub,2013-03-08 02:42:00,
2013-03-07 18:47:00,45.7,44.1,29.84,WNW,288,2.0,6.0,94,0.00,,,0.00,meteohub,2013-03-08 02:47:00,
2013-03-07 18:52:00,45.7,44.4,29.84,WNW,288,1.0,6.0,95,0.00,,,0.00,meteohub,2013-03-08 02:52:00,
2013-03-07 18:57:00,45.5,44.2,29.84,WNW,288,0.0,5.0,95,0.00,,,0.00,meteohub,2013-03-08 02:57:00,
2013-03-07 19:02:00,45.5,44.2,29.84,WNW,288,0.0,4.0,95,0.00,,,0.00,meteohub,2013-03-08 03:02:00,
2013-03-07 19:07:00,45.5,44.2,29.84,WNW,288,2.0,2.0,95,0.00,,,0.00,meteohub,2013-03-08 03:07:00,
2013-03-07 19:12:00,45.5,43.9,29.84,WNW,288,0.0,3.0,94,0.00,,,0.00,meteohub,2013-03-08 03:12:00,
2013-03-07 19:17:00,45.5,43.9,29.84,WNW,288,3.0,3.0,94,0.00,,,0.00,meteohub,2013-03-08 03:17:00,
2013-03-07 19:22:00,45.5,43.9,29.84,WNW,288,3.0,3.0,94,0.00,,,0.00,meteohub,2013-03-08 03:22:00,
2013-03-07 19:27:00,45.5,43.9,29.84,WNW,288,4.0,4.0,94,0.00,,,0.00,meteohub,2013-03-08 03:27:00,
2013-03-07 19:32:00,45.7,44.1,29.84,WNW,288,3.0,6.0,94,0.00,,,0.00,meteohub,2013-03-08 03:32:00,
2013-03-07 19:37:00,45.7,44.1,29.84,WNW,288,3.0,6.0,94,0.00,,,0.00,meteohub,2013-03-08 03:37:00,
2013-03-07 19:47:00,45.7,44.1,29.84,WNW,288,0.0,6.0,94,0.00,,,0.00,meteohub,2013-03-08 03:47:00,
2013-03-07 19:52:00,45.5,43.9,29.84,WNW,288,0.0,6.0,94,0.00,,,0.00,meteohub,2013-03-08 03:52:00,
2013-03-07 19:57:00,45.3,43.7,29.84,WNW,288,2.0,4.0,94,0.00,,,0.00,meteohub,2013-03-08 03:57:00,
2013-03-07 20:07:00,45.3,43.7,29.84,WNW,288,0.0,4.0,94,0.00,,,0.00,meteohub,2013-03-08 04:07:00,
2013-03-07 20:12:00,45.3,43.7,29.84,WNW,288,1.0,4.0,94,0.00,,,0.00,meteohub,2013-03-08 04:12:00,
2013-03-07 20:17:00,45.3,43.7,29.84,WNW,288,1.0,4.0,94,0.00,,,0.00,meteohub,2013-03-08 04:17:00,
2013-03-07 20:22:00,45.3,43.7,29.84,WNW,288,0.0,3.0,94,0.00,,,0.00,meteohub,2013-03-08 04:22:00,
2013-03-07 20:27:00,45.3,43.7,29.84,WNW,288,2.0,3.0,94,0.00,,,0.00,meteohub,2013-03-08 04:27:00,
2013-03-07 20:32:00,45.3,43.7,29.84,WNW,288,1.0,4.0,94,0.00,,,0.00,meteohub,2013-03-08 04:32:00,
2013-03-07 20:37:00,45.3,43.7,29.84,WNW,288,0.0,4.0,94,0.00,,,0.00,meteohub,2013-03-08 04:37:00,
2013-03-07 20:42:00,45.1,43.5,29.84,WNW,288,0.0,4.0,94,0.00,,,0.00,meteohub,2013-03-08 04:42:00,
2013-03-07 20:47:00,45.1,43.5,29.84,WNW,288,0.0,2.0,94,0.00,,,0.00,meteohub,2013-03-08 04:47:00,
2013-03-07 20:52:00,45.1,43.5,29.84,WNW,288,2.0,2.0,94,0.00,,,0.00,meteohub,2013-03-08 04:52:00,
2013-03-07 20:57:00,45.1,43.5,29.84,WNW,288,3.0,3.0,94,0.00,,,0.00,meteohub,2013-03-08 04:57:00,
2013-03-07 21:02:00,45.0,43.3,29.84,WNW,288,1.0,4.0,94,0.00,,,0.00,meteohub,2013-03-08 05:02:00,
2013-03-07 21:07:00,45.0,43.3,29.84,WNW,288,0.0,4.0,94,0.00,,,0.00,meteohub,2013-03-08 05:07:00,
2013-03-07 21:12:00,45.0,43.3,29.84,WNW,288,0.0,4.0,94,0.00,,,0.00,meteohub,2013-03-08 05:12:00,
2013-03-07 21:17:00,44.8,43.2,29.84,WNW,288,0.0,4.0,94,0.00,,,0.00,meteohub,2013-03-08 05:17:00,
2013-03-07 21:22:00,44.8,43.2,29.84,WNW,288,0.0,3.0,94,0.00,,,0.00,meteohub,2013-03-08 05:22:00,
2013-03-07 21:27:00,44.8,43.2,29.84,WNW,288,0.0,2.0,94,0.00,,,0.00,meteohub,2013-03-08 05:27:00,
2013-03-07 21:37:00,44.6,43.0,29.84,WNW,288,0.0,1.0,94,0.00,,,0.00,meteohub,2013-03-08 05:37:00,
2013-03-07 21:42:00,44.6,43.0,29.85,WNW,288,0.0,2.0,94,0.00,,,0.00,meteohub,2013-03-08 05:42:00,
2013-03-07 21:47:00,44.4,42.8,29.85,WNW,288,0.0,2.0,94,0.00,,,0.00,meteohub,2013-03-08 05:47:00,
2013-03-07 21:52:00,44.4,42.8,29.85,WNW,288,0.0,1.0,94,0.00,,,0.00,meteohub,2013-03-08 05:52:00,
2013-03-07 21:57:00,44.4,42.8,29.85,WNW,288,0.0,0.0,94,0.00,,,0.00,meteohub,2013-03-08 05:57:00,
2013-03-07 22:02:00,44.4,42.8,29.85,WNW,288,0.0,2.0,94,0.00,,,0.00,meteohub,2013-03-08 06:02:00,
2013-03-07 22:07:00,44.4,42.8,29.85,WNW,288,0.0,3.0,94,0.00,,,0.00,meteohub,2013-03-08 06:07:00,
2013-03-07 22:12:00,44.4,43.2,29.84,WNW,288,1.0,3.0,95,0.00,,,0.00,meteohub,2013-03-08 06:12:00,
2013-03-07 22:17:00,44.4,43.2,29.84,WNW,288,2.0,3.0,95,0.00,,,0.00,meteohub,2013-03-08 06:17:00,
2013-03-07 22:22:00,44.4,43.2,29.84,WNW,288,1.0,3.0,95,0.00,,,0.00,meteohub,2013-03-08 06:22:00,
2013-03-07 22:27:00,44.4,43.2,29.84,WNW,288,2.0,4.0,95,0.00,,,0.00,meteohub,2013-03-08 06:27:00,
2013-03-07 22:32:00,44.4,43.2,29.84,WNW,288,0.0,4.0,95,0.00,,,0.00,meteohub,2013-03-08 06:32:00,
2013-03-07 22:37:00,44.4,43.2,29.84,WNW,288,0.0,4.0,95,0.00,,,0.00,meteohub,2013-03-08 06:37:00,
2013-03-07 22:42:00,44.4,43.2,29.84,WNW,288,0.0,4.0,95,0.00,,,0.00,meteohub,2013-03-08 06:42:00,
2013-03-07 22:47:00,44.2,43.0,29.84,WNW,288,0.0,2.0,95,0.00,,,0.00,meteohub,2013-03-08 06:47:00,
2013-03-07 22:52:00,44.2,43.0,29.84,WNW,288,0.0,0.0,95,0.00,,,0.00,meteohub,2013-03-08 06:52:00,
2013-03-07 22:57:00,44.2,43.0,29.84,WNW,288,0.0,3.0,95,0.00,,,0.00,meteohub,2013-03-08 06:57:00,
2013-03-07 23:02:00,44.1,42.8,29.84,WNW,288,0.0,3.0,95,0.00,,,0.00,meteohub,2013-03-08 07:02:00,
2013-03-07 23:07:00,44.1,42.8,29.84,WNW,288,0.0,3.0,95,0.00,,,0.00,meteohub,2013-03-08 07:07:00,
2013-03-07 23:12:00,44.1,42.8,29.84,WNW,288,1.0,2.0,95,0.00,,,0.00,meteohub,2013-03-08 07:12:00,
2013-03-07 23:17:00,43.9,42.6,29.84,WNW,288,0.0,2.0,95,0.00,,,0.00,meteohub,2013-03-08 07:17:00,
2013-03-07 23:22:00,43.9,42.6,29.84,WNW,288,2.0,2.0,95,0.00,,,0.00,meteohub,2013-03-08 07:22:00,
2013-03-07 23:27:00,43.9,42.6,29.83,WNW,288,2.0,3.0,95,0.00,,,0.00,meteohub,2013-03-08 07:27:00,
2013-03-07 23:32:00,43.9,42.6,29.83,WNW,288,1.0,4.0,95,0.00,,,0.00,meteohub,2013-03-08 07:32:00,
2013-03-07 23:37:00,43.9,42.6,29.83,WNW,288,0.0,4.0,95,0.00,,,0.00,meteohub,2013-03-08 07:37:00,
2013-03-07 23:42:00,43.7,42.1,29.83,WNW,288,0.0,4.0,94,0.00,,,0.00,meteohub,2013-03-08 07:42:00,
2013-03-07 23:52:00,43.3,42.1,29.83,WNW,288,0.0,4.0,95,0.00,,,0.00,meteohub,2013-03-08 07:52:00,
2013-03-07 23:57:00,43.3,41.7,29.83,WNW,288,0.0,4.0,94,0.00,,,0.00,meteohub,2013-03-08 07:57:00,